createdAt,value
2018-05-27T00:00:23.069Z,96.20
2018-05-27T00:02:01.105Z,96.50
2018-05-27T00:03:37.469Z,96.60
2018-05-27T00:05:15.124Z,96.40
2018-05-27T00:06:52.152Z,96.20
2018-05-27T00:08:33.486Z,95.90
2018-05-27T00:10:12.346Z,96.20
2018-05-27T00:11:50.995Z,96.50
2018-05-27T00:13:32.392Z,96.60
2018-05-27T00:15:18.608Z,96.70
2018-05-27T00:17:04.343Z,96.80
2018-05-27T00:18:54.965Z,96.20
2018-05-27T00:20:39.574Z,96.50
2018-05-27T00:22:20.694Z,96.70
2018-05-27T00:24:04.309Z,96.80
2018-05-27T00:25:41.083Z,96.90
2018-05-27T00:27:18.841Z,96.90
2018-05-27T00:29:10.261Z,96.90
2018-05-27T00:30:47.986Z,96.90
2018-05-27T00:32:28.600Z,96.80
2018-05-27T00:34:13.664Z,96.40
2018-05-27T00:35:56.191Z,96.40
2018-05-27T00:37:33.697Z,96.30
2018-05-27T00:39:10.285Z,96.00
2018-05-27T00:40:46.615Z,95.70
2018-05-27T00:42:23.051Z,95.60
2018-05-27T00:43:59.941Z,95.60
2018-05-27T00:45:36.429Z,95.70
2018-05-27T00:47:13.490Z,95.50
2018-05-27T00:48:50.009Z,95.50
2018-05-27T00:50:38.213Z,95.30
2018-05-27T00:52:14.546Z,95.50
2018-05-27T00:54:00.754Z,97.20
2018-05-27T00:55:37.122Z,97.70
2018-05-27T00:57:13.366Z,97.30
2018-05-27T00:58:50.270Z,96.70
2018-05-27T01:00:28.990Z,96.20
2018-05-27T01:02:12.647Z,96.50
2018-05-27T01:03:56.070Z,96.80
2018-05-27T01:05:39.721Z,96.40
2018-05-27T01:07:19.627Z,96.10
2018-05-27T01:08:56.853Z,96.50
2018-05-27T01:10:33.181Z,96.50
2018-05-27T01:12:09.873Z,96.60
2018-05-27T01:13:46.102Z,96.40
2018-05-27T01:15:22.609Z,96.30
2018-05-27T01:17:01.388Z,96.40
2018-05-27T01:18:38.053Z,96.40
2018-05-27T01:20:15.124Z,95.40
2018-05-27T01:21:51.446Z,95.40
2018-05-27T01:23:27.706Z,95.30
2018-05-27T01:25:04.523Z,96.00
2018-05-27T01:26:41.519Z,96.30
2018-05-27T01:28:17.818Z,96.30
2018-05-27T01:29:54.017Z,96.90
2018-05-27T01:31:32.538Z,96.50
2018-05-27T01:33:08.811Z,96.40
2018-05-27T01:34:45.034Z,96.60
2018-05-27T01:36:21.357Z,96.80
2018-05-27T01:37:57.912Z,97.30
2018-05-27T01:39:35.903Z,96.50
2018-05-27T01:41:12.975Z,96.60
2018-05-27T01:42:49.200Z,96.60
2018-05-27T01:44:26.018Z,96.50
2018-05-27T01:46:02.367Z,96.60
2018-05-27T01:47:39.450Z,96.60
2018-05-27T01:49:15.668Z,96.60
2018-05-27T01:50:52.253Z,97.00
2018-05-27T01:52:28.548Z,96.70
2018-05-27T01:54:05.662Z,96.50
2018-05-27T01:55:42.634Z,96.20
2018-05-27T01:57:19.489Z,96.20
2018-05-27T01:58:55.741Z,96.10
2018-05-27T02:00:32.185Z,96.60
2018-05-27T02:02:08.442Z,96.70
2018-05-27T02:03:46.477Z,96.40
2018-05-27T02:05:22.712Z,96.40
2018-05-27T02:06:58.979Z,95.90
2018-05-27T02:08:35.949Z,95.70
2018-05-27T02:10:13.481Z,95.50
2018-05-27T02:11:49.937Z,95.50
2018-05-27T02:13:26.201Z,95.40
2018-05-27T02:15:02.391Z,95.10
2018-05-27T02:16:38.902Z,95.60
2018-05-27T02:18:15.210Z,95.70
2018-05-27T02:19:51.521Z,96.40
2018-05-27T02:21:29.450Z,96.10
2018-05-27T02:23:06.364Z,96.00
2018-05-27T02:24:42.661Z,95.60
2018-05-27T02:26:19.242Z,95.40
2018-05-27T02:27:55.429Z,96.00
2018-05-27T02:29:33.309Z,95.70
2018-05-27T02:31:09.977Z,95.00
2018-05-27T02:32:46.890Z,95.30
2018-05-27T02:34:24.111Z,95.00
2018-05-27T02:36:01.088Z,95.00
2018-05-27T02:37:38.376Z,94.60
2018-05-27T02:39:14.996Z,94.60
2018-05-27T02:40:52.025Z,94.80
2018-05-27T02:42:28.950Z,94.80
2018-05-27T02:44:05.289Z,95.30
2018-05-27T02:45:42.003Z,95.30
2018-05-27T02:47:19.393Z,95.90
2018-05-27T02:48:57.337Z,95.90
2018-05-27T02:50:34.181Z,95.90
2018-05-27T02:52:10.459Z,95.40
2018-05-27T02:53:46.753Z,95.20
2018-05-27T02:55:23.515Z,95.50
2018-05-27T02:56:59.691Z,95.90
2018-05-27T02:58:37.694Z,96.90
2018-05-27T03:00:16.344Z,97.00
2018-05-27T03:01:53.218Z,97.00
2018-05-27T03:03:29.468Z,97.10
2018-05-27T03:05:08.470Z,97.60
2018-05-27T03:06:44.735Z,97.60
2018-05-27T03:08:21.686Z,97.60
2018-05-27T03:09:58.788Z,98.20
2018-05-27T03:11:35.068Z,98.20
2018-05-27T03:13:11.381Z,98.10
2018-05-27T03:14:48.771Z,98.50
2018-05-27T03:16:25.338Z,98.50
2018-05-27T03:18:01.630Z,98.50
2018-05-27T03:19:38.601Z,99.00
2018-05-27T03:21:15.943Z,99.10
2018-05-27T03:22:52.825Z,99.10
2018-05-27T03:24:29.040Z,99.00
2018-05-27T03:26:05.407Z,99.00
2018-05-27T03:27:42.156Z,98.60
2018-05-27T03:29:18.380Z,98.40
2018-05-27T03:30:55.063Z,97.60
2018-05-27T03:32:31.229Z,97.30
2018-05-27T03:34:07.473Z,97.10
2018-05-27T03:35:45.411Z,97.30
2018-05-27T03:37:22.361Z,96.40
2018-05-27T03:38:59.606Z,96.40
2018-05-27T03:40:36.607Z,96.20
2018-05-27T03:42:13.143Z,95.80
2018-05-27T03:43:49.394Z,96.10
2018-05-27T03:45:27.333Z,96.00
2018-05-27T03:47:03.542Z,96.20
2018-05-27T03:48:40.253Z,96.40
2018-05-27T03:50:16.485Z,96.50
2018-05-27T03:51:53.377Z,96.40
2018-05-27T03:53:29.613Z,96.50
2018-05-27T03:55:06.049Z,96.70
2018-05-27T03:56:42.574Z,95.70
2018-05-27T03:58:18.842Z,95.00
2018-05-27T03:59:55.009Z,94.90
2018-05-27T04:01:32.409Z,95.00
2018-05-27T04:03:09.965Z,94.80
2018-05-27T04:07:05.363Z,94.50
2018-05-27T04:08:42.669Z,94.50
2018-05-27T04:10:19.916Z,93.70
2018-05-27T04:11:56.186Z,93.40
2018-05-27T04:13:32.851Z,93.80
2018-05-27T04:15:09.393Z,94.00
2018-05-27T04:16:46.250Z,93.70
2018-05-27T04:18:22.920Z,93.50
2018-05-27T04:19:59.526Z,92.60
2018-05-27T04:21:35.737Z,92.10
2018-05-27T04:23:12.682Z,91.70
2018-05-27T04:24:48.968Z,91.50
2018-05-27T04:26:25.229Z,91.40
2018-05-27T04:28:01.510Z,91.50
2018-05-27T04:29:38.817Z,91.90
2018-05-27T04:31:15.447Z,91.90
2018-05-27T04:32:51.687Z,91.70
2018-05-27T04:34:27.908Z,90.60
2018-05-27T04:36:04.196Z,91.00
2018-05-27T04:37:40.441Z,91.00
2018-05-27T04:39:16.841Z,91.10
2018-05-27T04:40:53.121Z,91.20
2018-05-27T04:42:29.451Z,91.70
2018-05-27T04:44:05.944Z,91.30
2018-05-27T04:45:43.439Z,91.30
2018-05-27T04:47:19.666Z,91.30
2018-05-27T04:48:56.817Z,91.50
2018-05-27T04:50:33.613Z,91.50
2018-05-27T04:52:09.844Z,91.40
2018-05-27T04:53:46.043Z,90.20
2018-05-27T04:55:22.393Z,89.80
2018-05-27T04:56:59.382Z,89.20
2018-05-27T04:58:36.274Z,88.90
2018-05-27T05:00:14.760Z,90.00
2018-05-27T05:01:51.313Z,90.00
2018-05-27T05:03:27.530Z,90.50
2018-05-27T05:05:04.904Z,91.40
2018-05-27T05:06:41.950Z,91.80
2018-05-27T05:08:18.116Z,91.70
2018-05-27T05:09:55.628Z,92.30
2018-05-27T05:11:32.350Z,93.10
2018-05-27T05:13:08.581Z,93.10
2018-05-27T05:14:44.797Z,92.80
2018-05-27T05:16:21.569Z,92.60
2018-05-27T05:17:59.331Z,92.00
2018-05-27T05:19:36.422Z,91.60
2018-05-27T05:21:12.673Z,90.60
2018-05-27T05:22:49.276Z,89.60
2018-05-27T05:24:25.780Z,88.40
2018-05-27T05:26:02.117Z,86.40
2018-05-27T05:27:38.415Z,84.20
2018-05-27T05:29:14.928Z,81.50
2018-05-27T05:30:51.445Z,82.00
2018-05-27T05:32:28.317Z,85.90
2018-05-27T05:34:04.711Z,87.10
2018-05-27T05:35:41.421Z,86.90
2018-05-27T05:37:17.887Z,87.10
2018-05-27T05:38:54.734Z,88.50
2018-05-27T05:40:31.733Z,88.80
2018-05-27T05:42:07.897Z,88.80
2018-05-27T05:43:44.100Z,88.50
2018-05-27T05:45:21.065Z,88.00
2018-05-27T05:46:59.319Z,88.00
2018-05-27T05:48:36.433Z,87.00
2018-05-27T05:50:12.624Z,86.70
2018-05-27T05:51:49.329Z,86.20
2018-05-27T05:53:25.525Z,88.20
2018-05-27T05:55:01.702Z,90.50
2018-05-27T05:56:37.950Z,91.30
2018-05-27T05:58:14.095Z,91.50
2018-05-27T05:59:50.341Z,91.60
2018-05-27T06:01:27.660Z,91.10
2018-05-27T06:03:03.869Z,91.00
2018-05-27T06:04:41.269Z,89.10
2018-05-27T06:06:17.506Z,88.30
2018-05-27T06:07:54.443Z,86.80
2018-05-27T06:09:30.718Z,86.80
2018-05-27T06:11:07.318Z,85.00
2018-05-27T06:12:44.279Z,83.30
2018-05-27T06:14:20.458Z,83.20
2018-05-27T06:15:56.799Z,82.60
2018-05-27T06:17:34.869Z,82.60
2018-05-27T06:19:11.104Z,82.60
2018-05-27T06:20:47.377Z,82.60
2018-05-27T06:22:23.997Z,81.50
2018-05-27T06:24:01.553Z,79.00
2018-05-27T06:25:38.326Z,76.40
2018-05-27T06:27:14.514Z,79.10
2018-05-27T06:28:51.483Z,81.50
2018-05-27T06:30:29.762Z,81.40
2018-05-27T06:32:06.047Z,82.20
2018-05-27T06:33:42.325Z,81.40
2018-05-27T06:35:19.258Z,82.10
2018-05-27T06:36:56.046Z,82.00
2018-05-27T06:38:32.312Z,83.80
2018-05-27T06:40:09.273Z,83.30
2018-05-27T06:41:46.185Z,84.20
2018-05-27T06:43:22.859Z,84.20
2018-05-27T06:46:40.003Z,82.90
2018-05-27T06:48:16.218Z,84.40
2018-05-27T06:49:52.771Z,85.60
2018-05-27T06:51:40.557Z,84.70
2018-05-27T06:53:16.868Z,85.50
2018-05-27T06:54:53.244Z,85.20
2018-05-27T06:56:36.384Z,84.70
2018-05-27T06:58:13.326Z,85.00
2018-05-27T06:59:49.481Z,85.00
2018-05-27T07:01:25.852Z,84.70
2018-05-27T07:03:03.077Z,85.40
2018-05-27T07:04:39.477Z,86.10
2018-05-27T07:06:16.702Z,87.50
2018-05-27T07:07:53.053Z,87.50
2018-05-27T07:09:29.361Z,85.50
2018-05-27T07:11:05.569Z,85.80
2018-05-27T07:12:41.740Z,87.30
2018-05-27T07:14:17.979Z,84.50
2018-05-27T07:15:54.957Z,84.60
2018-05-27T07:17:31.918Z,84.40
2018-05-27T07:19:08.100Z,84.40
2018-05-27T07:20:45.969Z,84.60
2018-05-27T07:22:22.591Z,84.60
2018-05-27T07:23:58.796Z,84.90
2018-05-27T07:25:35.021Z,85.60
2018-05-27T07:27:11.219Z,83.10
2018-05-27T07:28:48.608Z,85.80
2018-05-27T07:30:27.265Z,85.80
2018-05-27T07:32:03.522Z,86.30
2018-05-27T07:33:39.743Z,85.70
2018-05-27T07:35:16.434Z,85.30
2018-05-27T07:36:52.625Z,86.60
2018-05-27T07:38:28.849Z,83.60
2018-05-27T07:40:05.181Z,84.70
2018-05-27T07:41:42.162Z,79.80
2018-05-27T07:43:19.115Z,78.80
2018-05-27T07:44:55.345Z,78.70
2018-05-27T07:46:32.650Z,79.80
2018-05-27T07:48:09.254Z,80.60
2018-05-27T07:49:45.529Z,81.10
2018-05-27T07:51:22.517Z,81.70
2018-05-27T07:52:58.728Z,82.40
2018-05-27T07:54:36.029Z,81.00
2018-05-27T07:56:12.285Z,78.40
2018-05-27T07:57:48.515Z,78.60
2018-05-27T07:59:24.754Z,79.00
2018-05-27T08:01:02.489Z,76.60
2018-05-27T08:02:39.373Z,80.40
2018-05-27T08:04:15.613Z,81.70
2018-05-27T08:05:51.987Z,80.80
2018-05-27T08:07:28.657Z,79.50
2018-05-27T08:09:06.688Z,77.30
2018-05-27T08:10:43.677Z,79.10
2018-05-27T08:12:19.907Z,79.10
2018-05-27T08:13:56.969Z,79.30
2018-05-27T08:15:33.439Z,79.30
2018-05-27T08:17:09.857Z,77.70
2018-05-27T08:18:46.069Z,77.70
2018-05-27T08:20:22.737Z,75.90
2018-05-27T08:21:58.997Z,75.00
2018-05-27T08:23:35.281Z,74.90
2018-05-27T08:25:12.121Z,76.00
2018-05-27T08:26:49.474Z,74.20
2018-05-27T08:28:25.680Z,74.10
2018-05-27T08:30:01.980Z,75.60
2018-05-27T08:31:38.487Z,77.30
2018-05-27T08:33:15.273Z,77.50
2018-05-27T08:34:52.403Z,77.00
2018-05-27T08:36:28.941Z,77.00
2018-05-27T08:38:05.962Z,77.80
2018-05-27T08:39:42.563Z,76.50
2018-05-27T08:41:19.563Z,73.60
2018-05-27T08:42:55.788Z,73.70
2018-05-27T08:44:32.140Z,73.50
2018-05-27T08:46:08.765Z,74.60
2018-05-27T08:47:45.298Z,76.80
2018-05-27T08:49:21.562Z,77.00
2018-05-27T08:50:58.012Z,77.90
2018-05-27T08:52:34.635Z,76.90
2018-05-27T08:54:11.214Z,76.60
2018-05-27T08:55:47.466Z,77.40
2018-05-27T08:57:23.822Z,78.00
2018-05-27T08:59:00.478Z,75.90
2018-05-27T09:00:38.197Z,77.00
2018-05-27T09:02:14.501Z,76.90
2018-05-27T09:03:52.255Z,77.60
2018-05-27T09:05:28.839Z,77.60
2018-05-27T09:07:05.834Z,77.10
2018-05-27T09:08:42.924Z,76.20
2018-05-27T09:10:19.285Z,76.20
2018-05-27T09:11:55.884Z,75.80
2018-05-27T09:13:32.220Z,72.40
2018-05-27T09:15:09.226Z,69.90
2018-05-27T09:16:45.653Z,69.90
2018-05-27T09:18:21.905Z,71.90
2018-05-27T09:19:58.138Z,71.50
2018-05-27T09:21:34.509Z,72.60
2018-05-27T09:23:10.850Z,73.70
2018-05-27T09:24:47.519Z,73.40
2018-05-27T09:26:23.890Z,74.20
2018-05-27T09:28:00.098Z,73.80
2018-05-27T09:29:37.247Z,72.60
2018-05-27T09:31:14.617Z,72.60
2018-05-27T09:32:50.831Z,73.60
2018-05-27T09:34:27.101Z,74.80
2018-05-27T09:36:03.474Z,75.00
2018-05-27T09:37:40.172Z,73.60
2018-05-27T09:39:17.346Z,73.80
2018-05-27T09:40:53.654Z,73.50
2018-05-27T09:42:30.617Z,73.90
2018-05-27T09:44:08.689Z,74.40
2018-05-27T09:45:45.514Z,74.50
2018-05-27T09:47:21.721Z,75.60
2018-05-27T09:48:57.993Z,74.60
2018-05-27T09:50:34.671Z,75.90
2018-05-27T09:52:10.881Z,76.00
2018-05-27T09:53:47.124Z,76.80
2018-05-27T09:55:23.365Z,75.90
2018-05-27T09:57:00.713Z,73.70
2018-05-27T09:58:36.974Z,73.70
2018-05-27T10:00:16.146Z,73.30
2018-05-27T10:01:52.652Z,72.00
2018-05-27T10:03:29.347Z,72.60
2018-05-27T10:05:06.080Z,71.90
2018-05-27T10:06:42.307Z,72.50
2018-05-27T10:08:19.275Z,73.50
2018-05-27T10:09:56.723Z,71.90
2018-05-27T10:11:33.009Z,71.80
2018-05-27T10:13:09.822Z,71.00
2018-05-27T10:14:46.142Z,69.10
2018-05-27T10:16:22.877Z,68.90
2018-05-27T10:17:59.150Z,69.00
2018-05-27T10:19:36.877Z,70.10
2018-05-27T10:21:13.123Z,70.20
2018-05-27T10:22:50.974Z,67.80
2018-05-27T10:24:27.255Z,68.40
2018-05-27T10:26:03.718Z,67.70
2018-05-27T10:27:39.975Z,66.30
2018-05-27T10:29:17.621Z,65.10
2018-05-27T10:30:54.066Z,64.10
2018-05-27T10:32:30.662Z,64.50
2018-05-27T10:34:06.917Z,65.90
2018-05-27T10:35:43.645Z,64.90
2018-05-27T10:37:20.069Z,67.00
2018-05-27T10:38:56.817Z,66.90
2018-05-27T10:40:33.013Z,64.60
2018-05-27T10:42:09.847Z,66.80
2018-05-27T10:43:46.102Z,69.60
2018-05-27T10:45:24.680Z,65.70
2018-05-27T10:47:00.961Z,65.60
2018-05-27T10:48:37.570Z,66.10
2018-05-27T10:50:13.818Z,65.60
2018-05-27T10:51:51.105Z,68.80
2018-05-27T10:53:27.470Z,68.90
2018-05-27T10:55:04.829Z,65.70
2018-05-27T10:56:41.844Z,65.80
2018-05-27T10:58:18.046Z,65.70
2018-05-27T10:59:54.317Z,63.80
2018-05-27T11:01:31.019Z,65.90
2018-05-27T11:03:07.704Z,64.90
2018-05-27T11:04:44.625Z,64.60
2018-05-27T11:06:21.104Z,62.30
2018-05-27T11:07:57.672Z,63.80
2018-05-27T11:09:33.946Z,64.90
2018-05-27T11:11:10.939Z,62.40
2018-05-27T11:12:47.210Z,62.40
2018-05-27T11:14:23.781Z,58.80
2018-05-27T11:16:00.084Z,59.00
2018-05-27T11:17:36.298Z,60.80
2018-05-27T11:19:12.552Z,63.40
2018-05-27T11:20:50.154Z,61.70
2018-05-27T11:22:26.337Z,60.80
2018-05-27T11:24:03.378Z,59.70
2018-05-27T11:25:39.822Z,59.70
2018-05-27T11:27:16.508Z,59.40
2018-05-27T11:28:52.722Z,60.80
2018-05-27T11:30:29.157Z,63.40
2018-05-27T11:32:06.346Z,66.10
2018-05-27T11:33:43.082Z,65.20
2018-05-27T11:35:19.336Z,62.90
2018-05-27T11:36:55.602Z,63.80
2018-05-27T11:38:32.597Z,63.20
2018-05-27T11:40:09.330Z,63.20
2018-05-27T11:41:46.417Z,62.80
2018-05-27T11:43:22.601Z,62.80
2018-05-27T11:44:58.824Z,62.40
2018-05-27T11:46:36.465Z,64.20
2018-05-27T11:48:12.811Z,64.20
2018-05-27T11:49:49.096Z,65.20
2018-05-27T11:51:25.388Z,62.50
2018-05-27T11:53:02.897Z,64.70
2018-05-27T11:54:39.771Z,67.60
2018-05-27T11:56:16.738Z,71.60
2018-05-27T11:57:53.017Z,71.60
2018-05-27T11:59:29.711Z,71.80
2018-05-27T12:01:07.039Z,73.60
2018-05-27T12:02:44.172Z,74.40
2018-05-27T12:04:20.483Z,74.30
2018-05-27T12:05:57.935Z,73.50
2018-05-27T12:07:34.144Z,73.40
2018-05-27T12:09:11.414Z,72.10
2018-05-27T12:10:47.579Z,72.10
2018-05-27T12:12:24.641Z,68.60
2018-05-27T12:14:00.950Z,68.60
2018-05-27T12:15:37.526Z,68.30
2018-05-27T12:17:14.230Z,68.30
2018-05-27T12:18:50.596Z,69.40
2018-05-27T12:20:27.878Z,69.90
2018-05-27T12:22:05.232Z,71.20
2018-05-27T12:23:41.848Z,70.50
2018-05-27T12:25:18.823Z,69.50
2018-05-27T12:26:55.984Z,70.00
2018-05-27T12:28:33.072Z,70.50
2018-05-27T12:30:10.579Z,72.40
2018-05-27T12:31:46.991Z,72.30
2018-05-27T12:33:23.265Z,70.30
2018-05-27T12:34:59.556Z,70.30
2018-05-27T12:36:36.525Z,70.20
2018-05-27T12:38:13.614Z,71.90
2018-05-27T12:39:50.548Z,73.60
2018-05-27T12:41:27.294Z,73.60
2018-05-27T12:43:03.506Z,74.80
2018-05-27T12:44:39.772Z,76.70
2018-05-27T12:46:16.082Z,75.90
2018-05-27T12:47:52.712Z,75.30
2018-05-27T12:49:29.767Z,74.90
2018-05-27T12:51:07.227Z,74.90
2018-05-27T12:52:43.477Z,77.60
2018-05-27T12:54:20.120Z,76.90
2018-05-27T12:55:56.290Z,75.20
2018-05-27T12:57:32.993Z,75.10
2018-05-27T12:59:09.589Z,75.60
2018-05-27T13:00:47.174Z,74.20
2018-05-27T13:02:23.401Z,74.10
2018-05-27T13:03:59.725Z,73.50
2018-05-27T13:05:36.303Z,75.00
2018-05-27T13:07:13.371Z,75.40
2018-05-27T13:08:50.372Z,75.00
2018-05-27T13:10:26.631Z,74.90
2018-05-27T13:12:03.450Z,74.80
2018-05-27T13:13:39.822Z,74.70
2018-05-27T13:15:18.403Z,75.60
2018-05-27T13:16:55.241Z,73.40
2018-05-27T13:18:32.494Z,73.70
2018-05-27T13:20:09.557Z,73.70
2018-05-27T13:21:45.914Z,73.80
2018-05-27T13:23:22.212Z,73.80
2018-05-27T13:24:58.983Z,73.50
2018-05-27T13:26:36.648Z,73.10
2018-05-27T13:28:12.923Z,73.10
2018-05-27T13:29:50.042Z,73.10
2018-05-27T13:31:26.932Z,73.10
2018-05-27T13:33:03.268Z,74.50
2018-05-27T13:34:39.603Z,75.40
2018-05-27T13:36:15.984Z,76.40
2018-05-27T13:37:52.745Z,75.50
2018-05-27T13:39:28.972Z,74.10
2018-05-27T13:41:06.014Z,73.30
2018-05-27T13:42:42.486Z,73.70
2018-05-27T13:44:19.245Z,75.10
2018-05-27T13:45:55.845Z,74.80
2018-05-27T13:47:32.047Z,74.00
2018-05-27T13:49:09.129Z,74.60
2018-05-27T13:50:46.627Z,72.90
2018-05-27T13:52:23.774Z,74.20
2018-05-27T13:54:00.033Z,74.10
2018-05-27T13:55:36.304Z,70.70
2018-05-27T13:57:12.566Z,70.90
2018-05-27T13:58:49.039Z,71.20
2018-05-27T14:00:27.740Z,70.60
2018-05-27T14:02:03.968Z,68.70
2018-05-27T14:03:40.722Z,67.70
2018-05-27T14:05:17.046Z,67.10
2018-05-27T14:06:54.148Z,66.40
2018-05-27T14:08:30.451Z,67.20
2018-05-27T14:10:07.891Z,69.50
2018-05-27T14:11:44.894Z,74.10
2018-05-27T14:13:21.137Z,74.00
2018-05-27T14:14:57.492Z,73.50
2018-05-27T14:16:34.242Z,72.50
2018-05-27T14:18:10.572Z,71.00
2018-05-27T14:19:46.796Z,69.30
2018-05-27T14:21:23.246Z,68.90
2018-05-27T14:23:00.067Z,66.20
2018-05-27T14:24:37.239Z,67.40
2018-05-27T14:26:13.521Z,69.10
2018-05-27T14:27:50.601Z,69.20
2018-05-27T14:29:30.396Z,70.40
2018-05-27T14:31:11.782Z,70.30
2018-05-27T14:32:48.099Z,72.00
2018-05-27T14:34:26.708Z,74.60
2018-05-27T14:36:02.919Z,74.60
2018-05-27T14:37:40.846Z,73.50
2018-05-27T14:39:17.138Z,73.40
2018-05-27T14:40:53.722Z,73.20
2018-05-27T14:42:30.992Z,72.90
2018-05-27T14:44:07.768Z,71.20
2018-05-27T14:45:45.197Z,70.20
2018-05-27T14:47:23.305Z,70.10
2018-05-27T14:48:59.657Z,68.20
2018-05-27T14:50:35.937Z,67.60
2018-05-27T14:52:13.221Z,79.80
2018-05-27T14:53:54.805Z,79.90
2018-05-27T14:55:31.096Z,83.00
2018-05-27T14:57:11.943Z,80.30
2018-05-27T14:58:50.244Z,83.70
2018-05-27T15:00:28.471Z,83.70
2018-05-27T15:02:05.577Z,84.10
2018-05-27T15:03:42.633Z,84.10
2018-05-27T15:05:19.487Z,82.90
2018-05-27T15:06:56.477Z,83.40
2018-05-27T15:08:32.821Z,83.30
2018-05-27T15:10:09.653Z,84.20
2018-05-27T15:11:46.286Z,85.20
2018-05-27T15:15:01.062Z,85.20
2018-05-27T15:16:37.557Z,84.80
2018-05-27T15:18:14.064Z,85.20
2018-05-27T15:19:50.366Z,87.00
2018-05-27T15:21:26.641Z,87.00
2018-05-27T15:23:03.064Z,86.60
2018-05-27T15:24:41.386Z,88.20
2018-05-27T15:26:17.905Z,88.10
2018-05-27T15:27:55.061Z,88.60
2018-05-27T15:29:31.494Z,88.60
2018-05-27T15:31:08.423Z,89.80
2018-05-27T15:32:46.170Z,89.30
2018-05-27T15:34:23.193Z,89.30
2018-05-27T15:35:59.392Z,89.60
2018-05-27T15:37:36.065Z,87.80
2018-05-27T15:39:13.315Z,88.90
2018-05-27T15:40:50.468Z,87.50
2018-05-27T15:42:26.761Z,87.50
2018-05-27T15:44:02.994Z,87.20
2018-05-27T15:45:40.961Z,89.20
2018-05-27T15:47:17.231Z,84.90
2018-05-27T15:48:53.504Z,85.00
2018-05-27T15:50:30.250Z,83.90
2018-05-27T15:52:06.469Z,84.70
2018-05-27T15:53:44.514Z,84.90
2018-05-27T15:55:20.780Z,82.80
2018-05-27T15:56:57.492Z,82.10
2018-05-27T15:58:33.805Z,81.60
2018-05-27T16:00:10.010Z,81.60
2018-05-27T16:01:46.709Z,80.90
2018-05-27T16:03:23.394Z,80.90
2018-05-27T16:04:59.643Z,80.50
2018-05-27T16:06:35.961Z,81.20
2018-05-27T16:08:12.611Z,81.50
2018-05-27T16:09:49.224Z,82.20
2018-05-27T16:11:25.485Z,81.80
2018-05-27T16:13:01.854Z,82.20
2018-05-27T16:14:38.185Z,81.70
2018-05-27T16:16:16.626Z,81.30
2018-05-27T16:17:53.110Z,82.30
2018-05-27T16:19:29.697Z,82.30
2018-05-27T16:21:09.517Z,83.90
2018-05-27T16:22:47.729Z,85.00
2018-05-27T16:24:25.107Z,85.10
2018-05-27T16:26:02.125Z,84.70
2018-05-27T16:27:38.486Z,84.30
2018-05-27T16:29:14.985Z,84.40
2018-05-27T16:30:52.405Z,84.00
2018-05-27T16:32:28.719Z,84.20
2018-05-27T16:34:05.225Z,83.80
2018-05-27T16:35:51.201Z,85.60
2018-05-27T16:37:28.260Z,86.10
2018-05-27T16:39:06.295Z,86.90
2018-05-27T16:40:42.616Z,87.00
2018-05-27T16:42:20.544Z,87.80
2018-05-27T16:43:59.769Z,88.50
2018-05-27T16:45:39.285Z,90.00
2018-05-27T16:47:16.864Z,90.00
2018-05-27T16:48:54.566Z,90.20
2018-05-27T16:50:32.123Z,91.20
2018-05-27T16:52:08.431Z,91.60
2018-05-27T16:53:45.541Z,92.60
2018-05-27T16:55:22.137Z,92.50
2018-05-27T16:56:58.474Z,93.20
2018-05-27T16:58:34.846Z,94.00
2018-05-27T17:00:12.427Z,93.70
2018-05-27T17:01:49.448Z,94.20
2018-05-27T17:03:26.108Z,94.50
2018-05-27T17:05:02.494Z,95.40
2018-05-27T17:08:25.651Z,96.50
2018-05-27T17:10:02.151Z,96.00
2018-05-27T17:11:40.723Z,96.60
2018-05-27T17:13:18.256Z,97.10
2018-05-27T17:14:55.391Z,97.10
2018-05-27T17:16:32.262Z,97.60
2018-05-27T17:18:08.823Z,98.00
2018-05-27T17:19:46.459Z,98.40
2018-05-27T17:21:24.399Z,98.40
2018-05-27T17:23:01.710Z,97.80
2018-05-27T17:24:38.927Z,97.20
2018-05-27T17:26:22.586Z,99.00
2018-05-27T17:27:59.960Z,99.00
2018-05-27T17:29:36.883Z,99.30
2018-05-27T17:31:14.026Z,99.90
2018-05-27T17:32:50.950Z,99.00
2018-05-27T17:34:27.817Z,99.90
2018-05-27T17:36:04.359Z,99.70
2018-05-27T17:37:40.714Z,99.50
2018-05-27T17:39:17.867Z,99.30
2018-05-27T17:40:56.049Z,99.60
2018-05-27T17:42:32.767Z,99.90
2018-05-27T17:44:09.214Z,99.90
2018-05-27T17:45:50.176Z,99.90
2018-05-27T17:47:26.653Z,99.80
2018-05-27T17:49:04.387Z,99.90
2018-05-27T17:50:43.662Z,99.90
2018-05-27T17:52:20.928Z,99.90
2018-05-27T17:53:58.259Z,99.90
2018-05-27T17:55:35.140Z,99.90
2018-05-27T17:57:15.149Z,99.90
2018-05-27T17:58:52.326Z,99.90
2018-05-27T18:00:29.511Z,99.90
2018-05-27T18:02:06.921Z,99.90
2018-05-27T18:03:43.326Z,99.90
2018-05-27T18:05:20.572Z,99.90
2018-05-27T18:06:57.338Z,99.90
2018-05-27T18:08:33.873Z,99.90
2018-05-27T18:10:11.074Z,99.90
2018-05-27T18:11:47.954Z,99.90
2018-05-27T18:13:27.378Z,99.90
2018-05-27T18:15:06.040Z,99.90
2018-05-27T18:16:43.646Z,99.90
2018-05-27T18:18:19.947Z,99.90
2018-05-27T18:19:58.044Z,99.20
2018-05-27T18:21:35.043Z,99.00
2018-05-27T18:23:11.407Z,99.10
2018-05-27T18:24:49.256Z,99.20
2018-05-27T18:26:26.839Z,99.70
2018-05-27T18:28:03.791Z,99.20
2018-05-27T18:29:40.537Z,98.90
2018-05-27T18:31:20.271Z,98.40
2018-05-27T18:32:58.361Z,98.00
2018-05-27T18:34:34.841Z,97.60
2018-05-27T18:36:11.778Z,98.10
2018-05-27T18:37:50.257Z,97.10
2018-05-27T18:39:26.995Z,97.20
2018-05-27T18:41:04.465Z,96.90
2018-05-27T18:42:40.865Z,96.60
2018-05-27T18:44:18.373Z,96.50
2018-05-27T18:45:55.263Z,96.10
2018-05-27T18:47:32.124Z,95.70
2018-05-27T18:49:08.512Z,94.50
2018-05-27T18:50:45.801Z,95.30
2018-05-27T18:52:28.767Z,96.00
2018-05-27T18:54:05.781Z,94.70
2018-05-27T18:55:42.963Z,95.20
2018-05-27T18:57:20.440Z,95.60
2018-05-27T18:58:57.693Z,95.60
2018-05-27T19:00:34.500Z,96.70
2018-05-27T19:02:17.213Z,97.10
2018-05-27T19:03:54.246Z,98.80
2018-05-27T19:05:31.841Z,98.00
2018-05-27T19:07:08.972Z,98.10
2018-05-27T19:08:46.163Z,98.40
2018-05-27T19:10:23.380Z,98.10
2018-05-27T19:11:59.757Z,98.10
2018-05-27T19:13:37.774Z,98.60
2018-05-27T19:15:16.216Z,98.70
2018-05-27T19:16:54.144Z,98.80
2018-05-27T19:18:32.508Z,98.80
2018-05-27T19:20:09.734Z,98.90
2018-05-27T19:21:48.445Z,99.10
2018-05-27T19:23:26.461Z,99.40
2018-05-27T19:25:03.773Z,99.50
2018-05-27T19:26:40.528Z,99.10
2018-05-27T19:28:20.220Z,99.10
2018-05-27T19:30:00.415Z,98.70
2018-05-27T19:31:37.068Z,98.70
2018-05-27T19:33:13.423Z,98.50
2018-05-27T19:34:51.827Z,98.80
2018-05-27T19:36:28.397Z,98.80
2018-05-27T19:38:04.786Z,99.00
2018-05-27T19:39:47.593Z,99.10
2018-05-27T19:41:25.462Z,99.00
2018-05-27T19:43:04.491Z,99.20
2018-05-27T19:44:42.187Z,98.50
2018-05-27T19:46:20.390Z,97.90
2018-05-27T19:47:58.186Z,97.90
2018-05-27T19:49:35.746Z,98.70
2018-05-27T19:51:12.178Z,98.70
2018-05-27T19:52:49.695Z,98.40
2018-05-27T19:54:26.800Z,98.30
2018-05-27T19:56:05.399Z,98.20
2018-05-27T19:57:42.650Z,98.90
2018-05-27T19:59:20.150Z,99.40
2018-05-27T20:00:57.765Z,98.60
2018-05-27T20:02:34.154Z,98.60
2018-05-27T20:04:11.528Z,98.10
2018-05-27T20:05:48.417Z,97.60
2018-05-27T20:07:26.831Z,97.40
2018-05-27T20:09:05.430Z,97.00
2018-05-27T20:10:42.110Z,96.90
2018-05-27T20:12:22.191Z,97.00
2018-05-27T20:13:59.160Z,97.00
2018-05-27T20:15:37.156Z,97.00
2018-05-27T20:17:18.110Z,96.90
2018-05-27T20:18:55.503Z,97.50
2018-05-27T20:20:35.604Z,97.40
2018-05-27T20:22:12.706Z,98.20
2018-05-27T20:24:02.816Z,98.60
2018-05-27T20:25:40.050Z,98.70
2018-05-27T20:27:17.720Z,99.40
2018-05-27T20:28:54.632Z,99.40
2018-05-27T20:30:32.131Z,99.60
2018-05-27T20:32:21.660Z,99.90
2018-05-27T20:33:59.874Z,99.90
2018-05-27T20:35:37.587Z,99.70
2018-05-27T20:37:14.897Z,99.90
2018-05-27T20:38:52.048Z,99.90
2018-05-27T20:40:29.178Z,99.90
2018-05-27T20:42:24.657Z,99.90
2018-05-27T20:44:08.145Z,99.90
2018-05-27T20:45:45.927Z,99.90
2018-05-27T20:47:23.014Z,99.90
2018-05-27T20:49:03.305Z,99.90
2018-05-27T20:50:40.710Z,99.90
2018-05-27T20:52:24.944Z,99.90
2018-05-27T20:54:01.690Z,99.70
2018-05-27T20:55:38.770Z,99.40
2018-05-27T20:57:16.641Z,99.00
2018-05-27T20:58:53.333Z,99.00